sensor_id;sensor_type;location;lat;lon;timestamp;P1;durP1;ratioP1;P2;durP2;ratioP2
11111;SDS011;5609;49.466;8.468;2024-02-21T00:01:28;9.93;;;5.20;;
11111;SDS011;5609;49.466;8.468;2024-02-21T00:03:59;10.87;;;4.10;;
11111;SDS011;5609;49.466;8.468;2024-02-21T00:06:28;7.50;;;3.97;;
11111;SDS011;5609;49.466;8.468;2024-02-21T00:08:54;7.43;;;4.03;;
11111;SDS011;5609;49.466;8.468;2024-02-21T00:11:24;9.17;;;4.10;;
11111;SDS011;5609;49.466;8.468;2024-02-21T00:13:53;11.77;;;4.93;;
11111;SDS011;5609;49.466;8.468;2024-02-21T00:16:20;8.50;;;4.10;;
11111;SDS011;5609;49.466;8.468;2024-02-21T00:18:47;10.90;;;4.70;;
11111;SDS011;5609;49.466;8.468;2024-02-21T00:21:14;8.23;;;4.40;;
11111;SDS011;5609;49.466;8.468;2024-02-21T00:23:43;10.23;;;4.00;;
11111;SDS011;5609;49.466;8.468;2024-02-21T00:26:10;14.93;;;4.90;;
11111;SDS011;5609;49.466;8.468;2024-02-21T00:28:38;8.47;;;4.10;;
11111;SDS011;5609;49.466;8.468;2024-02-21T00:31:05;7.90;;;3.23;;
11111;SDS011;5609;49.466;8.468;2024-02-21T00:33:32;6.57;;;3.50;;
11111;SDS011;5609;49.466;8.468;2024-02-21T00:36:00;7.33;;;4.03;;
11111;SDS011;5609;49.466;8.468;2024-02-21T00:38:27;10.77;;;3.60;;
11111;SDS011;5609;49.466;8.468;2024-02-21T00:40:54;9.37;;;4.10;;
11111;SDS011;5609;49.466;8.468;2024-02-21T00:43:22;8.60;;;4.00;;
11111;SDS011;5609;49.466;8.468;2024-02-21T00:45:50;8.13;;;4.00;;
11111;SDS011;5609;49.466;8.468;2024-02-21T00:48:17;6.70;;;3.47;;
11111;SDS011;5609;49.466;8.468;2024-02-21T00:50:44;11.07;;;4.10;;
11111;SDS011;5609;49.466;8.468;2024-02-21T00:53:10;8.73;;;4.00;;
11111;SDS011;5609;49.466;8.468;2024-02-21T00:55:37;8.63;;;3.70;;
11111;SDS011;5609;49.466;8.468;2024-02-21T00:58:05;7.10;;;3.53;;
11111;SDS011;5609;49.466;8.468;2024-02-21T01:00:32;8.63;;;3.37;;
11111;SDS011;5609;49.466;8.468;2024-02-21T01:03:00;12.27;;;4.03;;
11111;SDS011;5609;49.466;8.468;2024-02-21T01:05:28;10.17;;;4.47;;
11111;SDS011;5609;49.466;8.468;2024-02-21T01:07:55;7.03;;;4.13;;
11111;SDS011;5609;49.466;8.468;2024-02-21T01:10:24;7.03;;;3.60;;
11111;SDS011;5609;49.466;8.468;2024-02-21T01:12:51;10.27;;;3.77;;
11111;SDS011;5609;49.466;8.468;2024-02-21T01:15:18;10.57;;;3.63;;
11111;SDS011;5609;49.466;8.468;2024-02-21T01:17:47;6.53;;;3.27;;
11111;SDS011;5609;49.466;8.468;2024-02-21T01:20:21;8.00;;;3.70;;
11111;SDS011;5609;49.466;8.468;2024-02-21T01:22:48;7.10;;;3.30;;
11111;SDS011;5609;49.466;8.468;2024-02-21T01:25:15;8.10;;;3.30;;
11111;SDS011;5609;49.466;8.468;2024-02-21T01:27:42;7.63;;;3.63;;
11111;SDS011;5609;49.466;8.468;2024-02-21T01:30:10;8.63;;;3.83;;
11111;SDS011;5609;49.466;8.468;2024-02-21T01:32:37;10.33;;;3.47;;
11111;SDS011;5609;49.466;8.468;2024-02-21T01:35:04;7.33;;;3.40;;
11111;SDS011;5609;49.466;8.468;2024-02-21T01:37:34;10.70;;;3.80;;
11111;SDS011;5609;49.466;8.468;2024-02-21T01:40:01;9.40;;;3.87;;
11111;SDS011;5609;49.466;8.468;2024-02-21T01:42:29;5.47;;;2.90;;
11111;SDS011;5609;49.466;8.468;2024-02-21T01:44:57;8.60;;;3.77;;
11111;SDS011;5609;49.466;8.468;2024-02-21T01:47:24;8.87;;;3.93;;
11111;SDS011;5609;49.466;8.468;2024-02-21T01:49:51;7.87;;;4.33;;
11111;SDS011;5609;49.466;8.468;2024-02-21T01:52:18;6.77;;;3.80;;
11111;SDS011;5609;49.466;8.468;2024-02-21T01:54:46;8.80;;;4.17;;
11111;SDS011;5609;49.466;8.468;2024-02-21T01:57:14;9.70;;;4.40;;
11111;SDS011;5609;49.466;8.468;2024-02-21T01:59:41;8.77;;;4.13;;
11111;SDS011;5609;49.466;8.468;2024-02-21T02:02:09;9.90;;;3.83;;
11111;SDS011;5609;49.466;8.468;2024-02-21T02:04:37;7.33;;;3.50;;
11111;SDS011;5609;49.466;8.468;2024-02-21T02:07:05;6.30;;;3.40;;
11111;SDS011;5609;49.466;8.468;2024-02-21T02:09:34;6.17;;;3.00;;
11111;SDS011;5609;49.466;8.468;2024-02-21T02:12:03;6.63;;;3.57;;
11111;SDS011;5609;49.466;8.468;2024-02-21T02:14:30;6.97;;;3.40;;
11111;SDS011;5609;49.466;8.468;2024-02-21T02:16:58;6.77;;;3.43;;
11111;SDS011;5609;49.466;8.468;2024-02-21T02:19:25;6.07;;;3.33;;
11111;SDS011;5609;49.466;8.468;2024-02-21T02:21:53;7.10;;;3.33;;
11111;SDS011;5609;49.466;8.468;2024-02-21T02:24:25;6.17;;;3.20;;
11111;SDS011;5609;49.466;8.468;2024-02-21T02:26:52;8.73;;;3.03;;
11111;SDS011;5609;49.466;8.468;2024-02-21T02:29:22;6.40;;;3.20;;
11111;SDS011;5609;49.466;8.468;2024-02-21T02:31:49;8.70;;;3.50;;
11111;SDS011;5609;49.466;8.468;2024-02-21T02:34:16;7.50;;;3.60;;
11111;SDS011;5609;49.466;8.468;2024-02-21T02:36:43;8.37;;;3.80;;
11111;SDS011;5609;49.466;8.468;2024-02-21T02:39:10;6.90;;;3.23;;
11111;SDS011;5609;49.466;8.468;2024-02-21T02:41:39;11.27;;;3.90;;
11111;SDS011;5609;49.466;8.468;2024-02-21T02:44:06;6.00;;;3.00;;
11111;SDS011;5609;49.466;8.468;2024-02-21T02:46:34;7.00;;;3.53;;
11111;SDS011;5609;49.466;8.468;2024-02-21T02:49:00;9.03;;;4.00;;
11111;SDS011;5609;49.466;8.468;2024-02-21T02:51:27;7.73;;;3.20;;
11111;SDS011;5609;49.466;8.468;2024-02-21T02:53:54;7.87;;;3.93;;
11111;SDS011;5609;49.466;8.468;2024-02-21T02:56:22;7.30;;;3.70;;
11111;SDS011;5609;49.466;8.468;2024-02-21T02:58:50;5.20;;;3.20;;
11111;SDS011;5609;49.466;8.468;2024-02-21T03:01:17;9.43;;;3.70;;
11111;SDS011;5609;49.466;8.468;2024-02-21T03:03:44;7.60;;;3.53;;
11111;SDS011;5609;49.466;8.468;2024-02-21T03:06:12;9.17;;;3.73;;
11111;SDS011;5609;49.466;8.468;2024-02-21T03:08:39;6.37;;;3.40;;
11111;SDS011;5609;49.466;8.468;2024-02-21T03:11:05;10.17;;;4.00;;
11111;SDS011;5609;49.466;8.468;2024-02-21T03:13:33;7.13;;;3.40;;
11111;SDS011;5609;49.466;8.468;2024-02-21T03:16:01;8.53;;;3.70;;
11111;SDS011;5609;49.466;8.468;2024-02-21T03:18:28;10.40;;;4.13;;
11111;SDS011;5609;49.466;8.468;2024-02-21T03:20:55;8.77;;;4.03;;
11111;SDS011;5609;49.466;8.468;2024-02-21T03:23:22;8.73;;;3.43;;
11111;SDS011;5609;49.466;8.468;2024-02-21T03:25:49;7.27;;;3.50;;
11111;SDS011;5609;49.466;8.468;2024-02-21T03:28:16;10.47;;;4.10;;
11111;SDS011;5609;49.466;8.468;2024-02-21T03:30:43;7.50;;;3.27;;
11111;SDS011;5609;49.466;8.468;2024-02-21T03:33:11;6.13;;;3.30;;
11111;SDS011;5609;49.466;8.468;2024-02-21T03:35:37;7.27;;;3.80;;
11111;SDS011;5609;49.466;8.468;2024-02-21T03:38:04;8.80;;;3.50;;
11111;SDS011;5609;49.466;8.468;2024-02-21T03:40:31;6.63;;;3.40;;
11111;SDS011;5609;49.466;8.468;2024-02-21T03:42:58;7.23;;;3.20;;
11111;SDS011;5609;49.466;8.468;2024-02-21T03:45:25;7.40;;;3.10;;
11111;SDS011;5609;49.466;8.468;2024-02-21T03:47:55;7.37;;;3.70;;
11111;SDS011;5609;49.466;8.468;2024-02-21T03:50:23;8.63;;;3.33;;
11111;SDS011;5609;49.466;8.468;2024-02-21T03:52:51;7.13;;;3.33;;
11111;SDS011;5609;49.466;8.468;2024-02-21T03:55:18;6.63;;;3.30;;
11111;SDS011;5609;49.466;8.468;2024-02-21T03:57:46;7.07;;;3.53;;
11111;SDS011;5609;49.466;8.468;2024-02-21T04:00:13;6.60;;;3.60;;
11111;SDS011;5609;49.466;8.468;2024-02-21T04:02:41;6.83;;;3.23;;
11111;SDS011;5609;49.466;8.468;2024-02-21T04:05:08;8.70;;;3.87;;
11111;SDS011;5609;49.466;8.468;2024-02-21T04:07:40;8.97;;;3.80;;
11111;SDS011;5609;49.466;8.468;2024-02-21T04:10:07;8.17;;;3.70;;
11111;SDS011;5609;49.466;8.468;2024-02-21T04:12:34;6.53;;;3.60;;
11111;SDS011;5609;49.466;8.468;2024-02-21T04:15:03;5.57;;;3.30;;
11111;SDS011;5609;49.466;8.468;2024-02-21T04:17:31;8.37;;;3.63;;
11111;SDS011;5609;49.466;8.468;2024-02-21T04:20:04;7.60;;;4.10;;
11111;SDS011;5609;49.466;8.468;2024-02-21T04:22:33;8.47;;;4.23;;
11111;SDS011;5609;49.466;8.468;2024-02-21T04:25:01;9.50;;;4.10;;
11111;SDS011;5609;49.466;8.468;2024-02-21T04:27:28;9.03;;;4.23;;
11111;SDS011;5609;49.466;8.468;2024-02-21T04:29:55;9.43;;;4.40;;
11111;SDS011;5609;49.466;8.468;2024-02-21T04:32:21;7.63;;;4.10;;
11111;SDS011;5609;49.466;8.468;2024-02-21T04:34:48;8.37;;;4.30;;
11111;SDS011;5609;49.466;8.468;2024-02-21T04:37:17;7.57;;;4.23;;
11111;SDS011;5609;49.466;8.468;2024-02-21T04:39:44;8.47;;;4.50;;
11111;SDS011;5609;49.466;8.468;2024-02-21T04:42:12;7.40;;;4.33;;
11111;SDS011;5609;49.466;8.468;2024-02-21T04:44:39;8.67;;;4.23;;
11111;SDS011;5609;49.466;8.468;2024-02-21T04:47:05;7.87;;;4.43;;
11111;SDS011;5609;49.466;8.468;2024-02-21T04:49:33;9.57;;;4.70;;
11111;SDS011;5609;49.466;8.468;2024-02-21T04:52:00;10.30;;;4.40;;
11111;SDS011;5609;49.466;8.468;2024-02-21T04:54:27;11.13;;;4.63;;
11111;SDS011;5609;49.466;8.468;2024-02-21T04:56:54;9.53;;;4.40;;
11111;SDS011;5609;49.466;8.468;2024-02-21T04:59:24;9.60;;;4.63;;
11111;SDS011;5609;49.466;8.468;2024-02-21T05:01:51;9.27;;;4.97;;
11111;SDS011;5609;49.466;8.468;2024-02-21T05:04:18;10.87;;;5.27;;
11111;SDS011;5609;49.466;8.468;2024-02-21T05:06:46;10.30;;;5.20;;
11111;SDS011;5609;49.466;8.468;2024-02-21T05:09:13;9.57;;;4.60;;
11111;SDS011;5609;49.466;8.468;2024-02-21T05:11:41;12.00;;;5.10;;
11111;SDS011;5609;49.466;8.468;2024-02-21T05:14:08;9.37;;;4.40;;
11111;SDS011;5609;49.466;8.468;2024-02-21T05:16:38;9.10;;;4.40;;
11111;SDS011;5609;49.466;8.468;2024-02-21T05:19:05;10.43;;;5.00;;
11111;SDS011;5609;49.466;8.468;2024-02-21T05:21:31;12.67;;;5.27;;
11111;SDS011;5609;49.466;8.468;2024-02-21T05:23:58;11.00;;;5.13;;
11111;SDS011;5609;49.466;8.468;2024-02-21T05:26:25;11.00;;;4.80;;
11111;SDS011;5609;49.466;8.468;2024-02-21T05:28:53;8.10;;;4.73;;
11111;SDS011;5609;49.466;8.468;2024-02-21T05:31:20;9.30;;;4.83;;
11111;SDS011;5609;49.466;8.468;2024-02-21T05:33:48;7.20;;;4.23;;
11111;SDS011;5609;49.466;8.468;2024-02-21T05:36:15;13.40;;;5.00;;
11111;SDS011;5609;49.466;8.468;2024-02-21T05:38:42;9.10;;;5.10;;
11111;SDS011;5609;49.466;8.468;2024-02-21T05:41:09;9.40;;;4.80;;
11111;SDS011;5609;49.466;8.468;2024-02-21T05:43:36;11.03;;;5.10;;
11111;SDS011;5609;49.466;8.468;2024-02-21T05:46:03;11.60;;;5.10;;
11111;SDS011;5609;49.466;8.468;2024-02-21T05:48:29;9.63;;;4.87;;
11111;SDS011;5609;49.466;8.468;2024-02-21T05:50:58;8.30;;;4.60;;
11111;SDS011;5609;49.466;8.468;2024-02-21T05:53:28;9.07;;;4.90;;
11111;SDS011;5609;49.466;8.468;2024-02-21T05:55:55;8.93;;;4.57;;
11111;SDS011;5609;49.466;8.468;2024-02-21T05:58:22;9.40;;;4.60;;
11111;SDS011;5609;49.466;8.468;2024-02-21T06:00:51;8.23;;;4.60;;
11111;SDS011;5609;49.466;8.468;2024-02-21T06:03:30;8.03;;;4.73;;
11111;SDS011;5609;49.466;8.468;2024-02-21T06:05:58;8.93;;;4.47;;
11111;SDS011;5609;49.466;8.468;2024-02-21T06:08:25;9.77;;;4.80;;
11111;SDS011;5609;49.466;8.468;2024-02-21T06:10:54;10.13;;;4.90;;
11111;SDS011;5609;49.466;8.468;2024-02-21T06:13:21;9.47;;;5.03;;
11111;SDS011;5609;49.466;8.468;2024-02-21T06:15:51;10.13;;;5.47;;
11111;SDS011;5609;49.466;8.468;2024-02-21T06:18:19;10.00;;;5.43;;
11111;SDS011;5609;49.466;8.468;2024-02-21T06:20:46;12.37;;;5.67;;
11111;SDS011;5609;49.466;8.468;2024-02-21T06:23:15;11.57;;;6.33;;
11111;SDS011;5609;49.466;8.468;2024-02-21T06:25:42;11.17;;;5.23;;
11111;SDS011;5609;49.466;8.468;2024-02-21T06:28:09;12.20;;;6.10;;
11111;SDS011;5609;49.466;8.468;2024-02-21T06:30:36;10.17;;;5.60;;
11111;SDS011;5609;49.466;8.468;2024-02-21T06:33:04;11.67;;;6.27;;
11111;SDS011;5609;49.466;8.468;2024-02-21T06:35:32;12.10;;;6.00;;
11111;SDS011;5609;49.466;8.468;2024-02-21T06:37:59;13.43;;;6.40;;
11111;SDS011;5609;49.466;8.468;2024-02-21T06:40:28;12.20;;;5.53;;
11111;SDS011;5609;49.466;8.468;2024-02-21T06:43:03;13.87;;;5.80;;
11111;SDS011;5609;49.466;8.468;2024-02-21T06:45:29;8.47;;;5.47;;
11111;SDS011;5609;49.466;8.468;2024-02-21T06:47:56;14.10;;;6.40;;
11111;SDS011;5609;49.466;8.468;2024-02-21T06:50:24;9.47;;;5.73;;
11111;SDS011;5609;49.466;8.468;2024-02-21T06:52:53;11.37;;;5.63;;
11111;SDS011;5609;49.466;8.468;2024-02-21T06:55:20;11.10;;;5.97;;
11111;SDS011;5609;49.466;8.468;2024-02-21T06:57:48;11.33;;;6.10;;
11111;SDS011;5609;49.466;8.468;2024-02-21T07:00:18;12.57;;;5.73;;
11111;SDS011;5609;49.466;8.468;2024-02-21T07:02:45;9.17;;;5.80;;
11111;SDS011;5609;49.466;8.468;2024-02-21T07:05:14;11.73;;;6.03;;
11111;SDS011;5609;49.466;8.468;2024-02-21T07:07:41;12.17;;;5.57;;
11111;SDS011;5609;49.466;8.468;2024-02-21T07:10:07;10.33;;;6.07;;
11111;SDS011;5609;49.466;8.468;2024-02-21T07:12:35;12.77;;;5.80;;
11111;SDS011;5609;49.466;8.468;2024-02-21T07:15:06;11.33;;;5.63;;
11111;SDS011;5609;49.466;8.468;2024-02-21T07:17:33;11.87;;;6.03;;
11111;SDS011;5609;49.466;8.468;2024-02-21T07:20:01;11.37;;;5.30;;
11111;SDS011;5609;49.466;8.468;2024-02-21T07:22:27;10.07;;;5.53;;
11111;SDS011;5609;49.466;8.468;2024-02-21T07:24:54;9.60;;;5.90;;
11111;SDS011;5609;49.466;8.468;2024-02-21T07:27:21;10.57;;;5.60;;
11111;SDS011;5609;49.466;8.468;2024-02-21T07:29:48;13.40;;;5.97;;
11111;SDS011;5609;49.466;8.468;2024-02-21T07:32:18;10.97;;;5.70;;
11111;SDS011;5609;49.466;8.468;2024-02-21T07:34:44;9.00;;;5.60;;
11111;SDS011;5609;49.466;8.468;2024-02-21T07:37:12;10.77;;;5.87;;
11111;SDS011;5609;49.466;8.468;2024-02-21T07:39:38;11.77;;;6.03;;
11111;SDS011;5609;49.466;8.468;2024-02-21T07:42:06;10.10;;;5.33;;
11111;SDS011;5609;49.466;8.468;2024-02-21T07:44:34;10.43;;;5.90;;
11111;SDS011;5609;49.466;8.468;2024-02-21T07:47:01;10.93;;;5.90;;
11111;SDS011;5609;49.466;8.468;2024-02-21T07:52:23;13.23;;;5.90;;
11111;SDS011;5609;49.466;8.468;2024-02-21T07:54:52;9.80;;;5.33;;
11111;SDS011;5609;49.466;8.468;2024-02-21T07:57:23;12.97;;;5.93;;
11111;SDS011;5609;49.466;8.468;2024-02-21T07:59:55;11.60;;;6.03;;
11111;SDS011;5609;49.466;8.468;2024-02-21T08:02:38;11.93;;;6.30;;
11111;SDS011;5609;49.466;8.468;2024-02-21T08:07:55;12.30;;;5.70;;
11111;SDS011;5609;49.466;8.468;2024-02-21T08:10:23;8.60;;;5.17;;
11111;SDS011;5609;49.466;8.468;2024-02-21T08:12:50;10.37;;;5.20;;
11111;SDS011;5609;49.466;8.468;2024-02-21T08:15:18;13.20;;;5.60;;
11111;SDS011;5609;49.466;8.468;2024-02-21T08:17:49;10.30;;;5.63;;
11111;SDS011;5609;49.466;8.468;2024-02-21T08:20:16;8.90;;;5.23;;
11111;SDS011;5609;49.466;8.468;2024-02-21T08:22:46;10.07;;;5.50;;
11111;SDS011;5609;49.466;8.468;2024-02-21T08:25:13;10.40;;;5.27;;
11111;SDS011;5609;49.466;8.468;2024-02-21T08:27:41;10.07;;;5.10;;
11111;SDS011;5609;49.466;8.468;2024-02-21T08:30:10;10.80;;;5.87;;
11111;SDS011;5609;49.466;8.468;2024-02-21T08:32:38;9.30;;;5.20;;
11111;SDS011;5609;49.466;8.468;2024-02-21T08:35:05;12.30;;;5.70;;
11111;SDS011;5609;49.466;8.468;2024-02-21T08:37:33;9.17;;;5.17;;
11111;SDS011;5609;49.466;8.468;2024-02-21T08:40:00;10.73;;;5.47;;
11111;SDS011;5609;49.466;8.468;2024-02-21T08:42:33;10.03;;;5.10;;
11111;SDS011;5609;49.466;8.468;2024-02-21T08:44:59;9.27;;;4.97;;
11111;SDS011;5609;49.466;8.468;2024-02-21T08:47:27;9.37;;;4.90;;
11111;SDS011;5609;49.466;8.468;2024-02-21T08:49:54;8.53;;;4.80;;
11111;SDS011;5609;49.466;8.468;2024-02-21T08:52:20;9.13;;;4.70;;
11111;SDS011;5609;49.466;8.468;2024-02-21T08:54:47;9.37;;;4.63;;
11111;SDS011;5609;49.466;8.468;2024-02-21T08:57:18;9.23;;;5.00;;
11111;SDS011;5609;49.466;8.468;2024-02-21T08:59:45;8.40;;;4.70;;
11111;SDS011;5609;49.466;8.468;2024-02-21T09:02:12;10.97;;;4.97;;
11111;SDS011;5609;49.466;8.468;2024-02-21T09:04:41;8.47;;;5.10;;
11111;SDS011;5609;49.466;8.468;2024-02-21T09:07:08;11.87;;;5.27;;
11111;SDS011;5609;49.466;8.468;2024-02-21T09:09:35;9.07;;;4.87;;
11111;SDS011;5609;49.466;8.468;2024-02-21T09:12:03;8.47;;;4.80;;
11111;SDS011;5609;49.466;8.468;2024-02-21T09:14:33;9.53;;;4.67;;
11111;SDS011;5609;49.466;8.468;2024-02-21T09:17:00;10.30;;;5.10;;
11111;SDS011;5609;49.466;8.468;2024-02-21T09:19:27;10.10;;;4.90;;
11111;SDS011;5609;49.466;8.468;2024-02-21T09:21:54;8.13;;;4.70;;
11111;SDS011;5609;49.466;8.468;2024-02-21T09:24:21;6.83;;;4.67;;
11111;SDS011;5609;49.466;8.468;2024-02-21T09:26:48;10.17;;;4.90;;
11111;SDS011;5609;49.466;8.468;2024-02-21T09:29:15;8.97;;;5.20;;
11111;SDS011;5609;49.466;8.468;2024-02-21T09:31:44;8.53;;;4.97;;
11111;SDS011;5609;49.466;8.468;2024-02-21T09:34:12;8.83;;;4.83;;
11111;SDS011;5609;49.466;8.468;2024-02-21T09:36:39;6.87;;;4.87;;
11111;SDS011;5609;49.466;8.468;2024-02-21T09:39:06;9.73;;;5.00;;
11111;SDS011;5609;49.466;8.468;2024-02-21T09:41:34;11.13;;;5.30;;
11111;SDS011;5609;49.466;8.468;2024-02-21T09:44:04;9.17;;;4.90;;
11111;SDS011;5609;49.466;8.468;2024-02-21T09:46:35;8.53;;;4.83;;
11111;SDS011;5609;49.466;8.468;2024-02-21T09:49:12;7.83;;;4.40;;
11111;SDS011;5609;49.466;8.468;2024-02-21T09:51:49;8.80;;;4.70;;
11111;SDS011;5609;49.466;8.468;2024-02-21T09:54:17;10.10;;;4.57;;
11111;SDS011;5609;49.466;8.468;2024-02-21T09:56:45;7.27;;;4.00;;
11111;SDS011;5609;49.466;8.468;2024-02-21T09:59:13;8.50;;;4.53;;
11111;SDS011;5609;49.466;8.468;2024-02-21T10:01:45;10.03;;;4.40;;
11111;SDS011;5609;49.466;8.468;2024-02-21T10:04:14;10.90;;;4.80;;
11111;SDS011;5609;49.466;8.468;2024-02-21T10:06:41;8.60;;;4.70;;
11111;SDS011;5609;49.466;8.468;2024-02-21T10:09:19;8.47;;;4.00;;
11111;SDS011;5609;49.466;8.468;2024-02-21T10:11:47;8.60;;;4.07;;
11111;SDS011;5609;49.466;8.468;2024-02-21T10:14:15;8.33;;;4.30;;
11111;SDS011;5609;49.466;8.468;2024-02-21T10:16:42;8.13;;;4.60;;
11111;SDS011;5609;49.466;8.468;2024-02-21T10:19:20;7.13;;;3.83;;
11111;SDS011;5609;49.466;8.468;2024-02-21T10:21:59;8.40;;;4.03;;
11111;SDS011;5609;49.466;8.468;2024-02-21T10:24:28;6.60;;;4.00;;
11111;SDS011;5609;49.466;8.468;2024-02-21T10:26:59;8.17;;;4.47;;
11111;SDS011;5609;49.466;8.468;2024-02-21T10:29:28;9.53;;;4.00;;
11111;SDS011;5609;49.466;8.468;2024-02-21T10:32:03;8.87;;;3.70;;
11111;SDS011;5609;49.466;8.468;2024-02-21T10:34:36;7.67;;;3.87;;
11111;SDS011;5609;49.466;8.468;2024-02-21T10:37:04;9.90;;;3.97;;
11111;SDS011;5609;49.466;8.468;2024-02-21T10:39:33;8.83;;;3.50;;
11111;SDS011;5609;49.466;8.468;2024-02-21T10:42:02;7.27;;;3.50;;
11111;SDS011;5609;49.466;8.468;2024-02-21T10:44:30;7.17;;;3.33;;
11111;SDS011;5609;49.466;8.468;2024-02-21T10:46:58;6.20;;;3.00;;
11111;SDS011;5609;49.466;8.468;2024-02-21T10:49:26;6.43;;;2.90;;
11111;SDS011;5609;49.466;8.468;2024-02-21T10:51:58;5.73;;;2.87;;
11111;SDS011;5609;49.466;8.468;2024-02-21T10:54:39;6.27;;;3.10;;
11111;SDS011;5609;49.466;8.468;2024-02-21T10:57:12;10.10;;;3.20;;
11111;SDS011;5609;49.466;8.468;2024-02-21T10:59:40;5.47;;;2.70;;
11111;SDS011;5609;49.466;8.468;2024-02-21T11:02:07;7.13;;;2.57;;
11111;SDS011;5609;49.466;8.468;2024-02-21T11:04:34;7.13;;;3.17;;
11111;SDS011;5609;49.466;8.468;2024-02-21T11:07:06;8.33;;;3.13;;
11111;SDS011;5609;49.466;8.468;2024-02-21T11:09:34;6.40;;;2.80;;
11111;SDS011;5609;49.466;8.468;2024-02-21T11:12:02;4.60;;;2.83;;
11111;SDS011;5609;49.466;8.468;2024-02-21T11:14:29;7.17;;;2.97;;
11111;SDS011;5609;49.466;8.468;2024-02-21T11:17:00;8.10;;;3.10;;
11111;SDS011;5609;49.466;8.468;2024-02-21T11:19:29;8.27;;;2.97;;
11111;SDS011;5609;49.466;8.468;2024-02-21T11:21:57;8.73;;;3.00;;
11111;SDS011;5609;49.466;8.468;2024-02-21T11:24:28;6.07;;;2.90;;
11111;SDS011;5609;49.466;8.468;2024-02-21T11:26:56;7.97;;;3.10;;
11111;SDS011;5609;49.466;8.468;2024-02-21T11:29:23;7.87;;;3.30;;
11111;SDS011;5609;49.466;8.468;2024-02-21T11:31:51;5.40;;;2.73;;
11111;SDS011;5609;49.466;8.468;2024-02-21T11:34:18;6.53;;;2.97;;
11111;SDS011;5609;49.466;8.468;2024-02-21T11:36:46;6.40;;;3.07;;
11111;SDS011;5609;49.466;8.468;2024-02-21T11:39:18;7.87;;;3.07;;
11111;SDS011;5609;49.466;8.468;2024-02-21T11:41:49;6.63;;;3.23;;
11111;SDS011;5609;49.466;8.468;2024-02-21T11:44:30;4.97;;;2.77;;
11111;SDS011;5609;49.466;8.468;2024-02-21T11:46:58;7.80;;;3.60;;
11111;SDS011;5609;49.466;8.468;2024-02-21T11:49:24;6.10;;;2.83;;
11111;SDS011;5609;49.466;8.468;2024-02-21T11:51:57;6.03;;;3.13;;
11111;SDS011;5609;49.466;8.468;2024-02-21T11:54:25;6.63;;;3.27;;
11111;SDS011;5609;49.466;8.468;2024-02-21T11:56:54;7.97;;;3.30;;
11111;SDS011;5609;49.466;8.468;2024-02-21T11:59:21;7.23;;;2.80;;
11111;SDS011;5609;49.466;8.468;2024-02-21T12:01:48;7.53;;;3.13;;
11111;SDS011;5609;49.466;8.468;2024-02-21T12:04:17;6.87;;;2.83;;
11111;SDS011;5609;49.466;8.468;2024-02-21T12:06:45;6.33;;;2.80;;
11111;SDS011;5609;49.466;8.468;2024-02-21T12:09:13;7.33;;;2.73;;
11111;SDS011;5609;49.466;8.468;2024-02-21T12:11:41;6.87;;;2.90;;
11111;SDS011;5609;49.466;8.468;2024-02-21T12:14:10;7.70;;;2.90;;
11111;SDS011;5609;49.466;8.468;2024-02-21T12:16:42;5.63;;;2.70;;
11111;SDS011;5609;49.466;8.468;2024-02-21T12:19:12;8.00;;;2.80;;
11111;SDS011;5609;49.466;8.468;2024-02-21T12:21:42;4.80;;;2.80;;
11111;SDS011;5609;49.466;8.468;2024-02-21T12:24:12;8.43;;;3.20;;
11111;SDS011;5609;49.466;8.468;2024-02-21T12:26:41;5.03;;;2.43;;
11111;SDS011;5609;49.466;8.468;2024-02-21T12:29:10;6.93;;;2.50;;
11111;SDS011;5609;49.466;8.468;2024-02-21T12:31:37;7.47;;;3.00;;
11111;SDS011;5609;49.466;8.468;2024-02-21T12:34:04;5.43;;;2.63;;
11111;SDS011;5609;49.466;8.468;2024-02-21T12:36:35;7.13;;;3.00;;
11111;SDS011;5609;49.466;8.468;2024-02-21T12:39:12;5.30;;;2.70;;
11111;SDS011;5609;49.466;8.468;2024-02-21T12:41:43;6.73;;;2.70;;
11111;SDS011;5609;49.466;8.468;2024-02-21T12:44:12;7.73;;;2.90;;
11111;SDS011;5609;49.466;8.468;2024-02-21T12:46:41;7.43;;;2.87;;
11111;SDS011;5609;49.466;8.468;2024-02-21T12:49:08;5.73;;;2.73;;
11111;SDS011;5609;49.466;8.468;2024-02-21T12:51:36;6.53;;;2.70;;
11111;SDS011;5609;49.466;8.468;2024-02-21T12:54:04;5.77;;;2.67;;
11111;SDS011;5609;49.466;8.468;2024-02-21T12:56:31;7.47;;;3.10;;
11111;SDS011;5609;49.466;8.468;2024-02-21T12:59:05;5.27;;;2.43;;
11111;SDS011;5609;49.466;8.468;2024-02-21T13:01:35;7.17;;;2.93;;
11111;SDS011;5609;49.466;8.468;2024-02-21T13:04:05;6.23;;;3.00;;
11111;SDS011;5609;49.466;8.468;2024-02-21T13:06:34;5.77;;;2.80;;
11111;SDS011;5609;49.466;8.468;2024-02-21T13:09:02;7.50;;;3.10;;
11111;SDS011;5609;49.466;8.468;2024-02-21T13:11:33;6.47;;;3.00;;
11111;SDS011;5609;49.466;8.468;2024-02-21T13:14:00;5.47;;;2.90;;
11111;SDS011;5609;49.466;8.468;2024-02-21T13:16:27;5.23;;;2.53;;
11111;SDS011;5609;49.466;8.468;2024-02-21T13:18:57;5.77;;;2.97;;
11111;SDS011;5609;49.466;8.468;2024-02-21T13:21:26;6.10;;;2.70;;
11111;SDS011;5609;49.466;8.468;2024-02-21T13:23:53;6.33;;;3.07;;
11111;SDS011;5609;49.466;8.468;2024-02-21T13:26:21;6.07;;;2.87;;
11111;SDS011;5609;49.466;8.468;2024-02-21T13:28:48;5.50;;;2.77;;
11111;SDS011;5609;49.466;8.468;2024-02-21T13:31:15;5.73;;;2.47;;
11111;SDS011;5609;49.466;8.468;2024-02-21T13:33:42;8.23;;;3.20;;
11111;SDS011;5609;49.466;8.468;2024-02-21T13:36:12;5.70;;;2.87;;
11111;SDS011;5609;49.466;8.468;2024-02-21T13:38:39;6.17;;;2.47;;
11111;SDS011;5609;49.466;8.468;2024-02-21T13:41:05;6.87;;;3.20;;
11111;SDS011;5609;49.466;8.468;2024-02-21T13:43:32;8.60;;;3.00;;
11111;SDS011;5609;49.466;8.468;2024-02-21T13:45:58;6.47;;;2.80;;
11111;SDS011;5609;49.466;8.468;2024-02-21T13:48:30;6.03;;;3.00;;
11111;SDS011;5609;49.466;8.468;2024-02-21T13:50:59;6.80;;;2.70;;
11111;SDS011;5609;49.466;8.468;2024-02-21T13:53:29;7.77;;;2.90;;
11111;SDS011;5609;49.466;8.468;2024-02-21T13:55:56;4.40;;;2.60;;
11111;SDS011;5609;49.466;8.468;2024-02-21T13:58:23;6.60;;;2.70;;
11111;SDS011;5609;49.466;8.468;2024-02-21T14:00:51;6.13;;;2.70;;
11111;SDS011;5609;49.466;8.468;2024-02-21T14:03:17;5.43;;;2.83;;
11111;SDS011;5609;49.466;8.468;2024-02-21T14:05:45;6.30;;;2.70;;
11111;SDS011;5609;49.466;8.468;2024-02-21T14:08:13;5.10;;;2.57;;
11111;SDS011;5609;49.466;8.468;2024-02-21T14:10:44;8.40;;;2.53;;
11111;SDS011;5609;49.466;8.468;2024-02-21T14:13:13;4.77;;;2.40;;
11111;SDS011;5609;49.466;8.468;2024-02-21T14:15:43;6.17;;;2.60;;
11111;SDS011;5609;49.466;8.468;2024-02-21T14:18:13;5.67;;;2.70;;
11111;SDS011;5609;49.466;8.468;2024-02-21T14:20:45;5.80;;;2.60;;
11111;SDS011;5609;49.466;8.468;2024-02-21T14:23:12;6.03;;;2.57;;
11111;SDS011;5609;49.466;8.468;2024-02-21T14:25:39;3.63;;;2.40;;
11111;SDS011;5609;49.466;8.468;2024-02-21T14:28:08;8.57;;;3.00;;
11111;SDS011;5609;49.466;8.468;2024-02-21T14:30:35;5.00;;;2.60;;
11111;SDS011;5609;49.466;8.468;2024-02-21T14:33:02;5.47;;;2.60;;
11111;SDS011;5609;49.466;8.468;2024-02-21T14:35:29;6.37;;;2.77;;
11111;SDS011;5609;49.466;8.468;2024-02-21T14:37:56;7.30;;;2.77;;
11111;SDS011;5609;49.466;8.468;2024-02-21T14:40:23;6.20;;;2.70;;
11111;SDS011;5609;49.466;8.468;2024-02-21T14:42:50;6.17;;;2.73;;
11111;SDS011;5609;49.466;8.468;2024-02-21T14:45:19;8.33;;;3.10;;
11111;SDS011;5609;49.466;8.468;2024-02-21T14:47:47;4.63;;;3.03;;
11111;SDS011;5609;49.466;8.468;2024-02-21T14:50:14;5.73;;;2.80;;
11111;SDS011;5609;49.466;8.468;2024-02-21T14:52:41;4.07;;;2.70;;
11111;SDS011;5609;49.466;8.468;2024-02-21T14:55:09;6.00;;;2.50;;
11111;SDS011;5609;49.466;8.468;2024-02-21T14:57:37;5.13;;;2.80;;
11111;SDS011;5609;49.466;8.468;2024-02-21T15:00:06;7.17;;;2.50;;
11111;SDS011;5609;49.466;8.468;2024-02-21T15:02:37;5.03;;;2.60;;
11111;SDS011;5609;49.466;8.468;2024-02-21T15:05:04;4.93;;;2.40;;
11111;SDS011;5609;49.466;8.468;2024-02-21T15:07:31;7.00;;;2.83;;
11111;SDS011;5609;49.466;8.468;2024-02-21T15:09:58;5.23;;;2.40;;